createdAt,value
2018-12-23T00:00:14.669Z,74.36
2018-12-23T00:01:18.659Z,73.56
2018-12-23T00:02:22.875Z,74.38
2018-12-23T00:03:26.947Z,74.18
2018-12-23T00:04:30.969Z,74.40
2018-12-23T00:05:35.004Z,73.36
2018-12-23T00:06:39.231Z,74.19
2018-12-23T00:07:43.300Z,73.81
2018-12-23T00:08:47.311Z,74.31
2018-12-23T00:09:51.372Z,74.50
2018-12-23T00:10:55.501Z,73.88
2018-12-23T00:11:59.701Z,74.07
2018-12-23T00:13:03.739Z,74.01
2018-12-23T00:14:07.732Z,74.23
2018-12-23T00:15:11.897Z,74.15
2018-12-23T00:16:16.033Z,74.42
2018-12-23T00:17:20.127Z,74.58
2018-12-23T00:18:24.128Z,74.37
2018-12-23T00:19:28.128Z,74.54
2018-12-23T00:20:32.218Z,74.30
2018-12-23T00:21:36.422Z,74.09
2018-12-23T00:22:40.737Z,74.10
2018-12-23T00:23:44.767Z,74.71
2018-12-23T00:24:48.995Z,74.44
2018-12-23T00:25:53.077Z,74.72
2018-12-23T00:26:58.707Z,74.14
2018-12-23T00:28:02.683Z,73.94
2018-12-23T00:29:06.738Z,74.55
2018-12-23T00:30:10.832Z,74.03
2018-12-23T00:31:14.860Z,74.32
2018-12-23T00:32:19.121Z,74.32
2018-12-23T00:33:23.071Z,74.69
2018-12-23T00:34:27.133Z,74.12
2018-12-23T00:35:31.163Z,74.65
2018-12-23T00:36:35.276Z,73.93
2018-12-23T00:37:39.317Z,74.08
2018-12-23T00:38:43.324Z,74.40
2018-12-23T00:39:47.327Z,74.31
2018-12-23T00:40:51.459Z,74.24
2018-12-23T00:41:55.900Z,74.34
2018-12-23T00:43:00.038Z,74.07
2018-12-23T00:44:04.308Z,74.55
2018-12-23T00:45:08.552Z,74.10
2018-12-23T00:46:12.749Z,74.68
2018-12-23T00:47:16.974Z,74.27
2018-12-23T00:48:20.990Z,74.54
2018-12-23T00:49:24.982Z,74.55
2018-12-23T00:50:29.012Z,73.84
2018-12-23T00:51:34.160Z,74.09
2018-12-23T00:52:38.181Z,74.40
2018-12-23T00:53:42.281Z,74.78
2018-12-23T00:54:46.333Z,74.42
2018-12-23T00:55:50.395Z,74.57
2018-12-23T00:56:54.626Z,74.61
2018-12-23T00:57:58.721Z,74.54
2018-12-23T00:59:03.004Z,73.99
2018-12-23T01:00:08.431Z,74.29
2018-12-23T01:01:12.619Z,73.95
2018-12-23T01:02:16.837Z,74.08
2018-12-23T01:03:20.945Z,74.41
2018-12-23T01:04:25.004Z,74.35
2018-12-23T01:05:29.140Z,74.75
2018-12-23T01:06:33.290Z,74.86
2018-12-23T01:07:37.366Z,74.94
2018-12-23T01:08:41.528Z,74.92
2018-12-23T01:09:45.662Z,74.41
2018-12-23T01:10:49.660Z,74.57
2018-12-23T01:11:53.768Z,74.40
2018-12-23T01:12:57.817Z,75.24
2018-12-23T01:14:01.861Z,75.27
2018-12-23T01:15:06.519Z,75.38
2018-12-23T01:16:10.691Z,74.99
2018-12-23T01:17:14.753Z,75.59
2018-12-23T01:18:18.955Z,75.49
2018-12-23T01:19:23.013Z,75.67
2018-12-23T01:20:27.291Z,75.27
2018-12-23T01:21:31.323Z,75.31
2018-12-23T01:22:35.400Z,75.85
2018-12-23T01:23:39.723Z,75.46
2018-12-23T01:24:43.822Z,75.98
2018-12-23T01:25:47.827Z,75.58
2018-12-23T01:26:51.937Z,75.45
2018-12-23T01:27:55.923Z,75.60
2018-12-23T01:29:00.045Z,75.64
2018-12-23T01:30:04.441Z,76.16
2018-12-23T01:31:08.561Z,75.73
2018-12-23T01:32:12.730Z,75.68
2018-12-23T01:33:16.723Z,76.13
2018-12-23T01:34:20.729Z,76.47
2018-12-23T01:35:24.787Z,75.91
2018-12-23T01:36:28.895Z,76.50
2018-12-23T01:37:33.135Z,75.95
2018-12-23T01:38:37.164Z,76.50
2018-12-23T01:39:41.237Z,75.89
2018-12-23T01:40:45.341Z,76.46
2018-12-23T01:41:49.806Z,76.39
2018-12-23T01:42:53.957Z,76.50
2018-12-23T01:43:57.971Z,76.24
2018-12-23T01:45:01.980Z,75.74
2018-12-23T01:46:06.145Z,76.33
2018-12-23T01:47:10.221Z,76.46
2018-12-23T01:48:14.275Z,76.15
2018-12-23T01:49:18.430Z,76.47
2018-12-23T01:50:22.455Z,76.38
2018-12-23T01:51:26.473Z,76.51
2018-12-23T01:52:30.499Z,76.54
2018-12-23T01:53:34.505Z,76.07
2018-12-23T01:54:38.547Z,76.00
2018-12-23T01:55:42.571Z,76.43
2018-12-23T01:56:46.922Z,76.06
2018-12-23T01:57:51.032Z,76.36
2018-12-23T01:58:55.127Z,76.77
2018-12-23T01:59:59.160Z,76.65
2018-12-23T02:01:03.295Z,76.70
2018-12-23T02:02:07.460Z,76.24
2018-12-23T02:03:11.545Z,76.29
2018-12-23T02:04:15.644Z,76.40
2018-12-23T02:05:19.801Z,76.71
2018-12-23T02:06:23.907Z,76.81
2018-12-23T02:07:28.005Z,76.34
2018-12-23T02:08:32.144Z,76.84
2018-12-23T02:09:36.237Z,76.19
2018-12-23T02:10:40.331Z,76.39
2018-12-23T02:11:44.441Z,76.43
2018-12-23T02:12:48.775Z,76.49
2018-12-23T02:13:52.925Z,76.43
2018-12-23T02:14:57.079Z,77.20
2018-12-23T02:16:01.088Z,76.75
2018-12-23T02:17:05.089Z,77.01
2018-12-23T02:18:09.106Z,77.07
2018-12-23T02:19:13.253Z,77.21
2018-12-23T02:20:17.363Z,77.31
2018-12-23T02:21:21.511Z,76.75
2018-12-23T02:22:25.597Z,76.76
2018-12-23T02:23:29.673Z,77.36
2018-12-23T02:24:33.838Z,77.47
2018-12-23T02:25:37.929Z,77.47
2018-12-23T02:26:42.029Z,77.70
2018-12-23T02:27:46.014Z,77.44
2018-12-23T02:28:50.013Z,77.26
2018-12-23T02:29:54.019Z,77.44
2018-12-23T02:30:58.120Z,77.10
2018-12-23T02:32:02.265Z,77.38
2018-12-23T02:33:06.326Z,77.16
2018-12-23T02:34:10.587Z,77.66
2018-12-23T02:35:14.814Z,77.58
2018-12-23T02:36:18.913Z,77.64
2018-12-23T02:37:22.936Z,77.21
2018-12-23T02:38:27.067Z,77.68
2018-12-23T02:39:31.143Z,77.58
2018-12-23T02:40:35.297Z,77.49
2018-12-23T02:41:39.460Z,77.52
2018-12-23T02:42:43.555Z,77.15
2018-12-23T02:43:47.561Z,77.47
2018-12-23T02:44:51.639Z,77.37
2018-12-23T02:45:55.649Z,77.04
2018-12-23T02:46:59.857Z,77.58
2018-12-23T02:48:04.000Z,77.74
2018-12-23T02:49:08.062Z,77.67
2018-12-23T02:50:12.118Z,77.84
2018-12-23T02:51:16.567Z,77.39
2018-12-23T02:52:20.922Z,78.07
2018-12-23T02:53:24.950Z,77.97
2018-12-23T02:54:29.100Z,77.72
2018-12-23T02:55:33.102Z,77.97
2018-12-23T02:56:37.140Z,77.51
2018-12-23T02:57:41.288Z,78.09
2018-12-23T02:58:45.301Z,78.31
2018-12-23T02:59:49.463Z,78.23
2018-12-23T03:00:53.515Z,78.24
2018-12-23T03:01:57.613Z,78.30
2018-12-23T03:03:01.715Z,77.99
2018-12-23T03:04:05.804Z,77.62
2018-12-23T03:05:10.069Z,78.08
2018-12-23T03:06:14.146Z,78.07
2018-12-23T03:07:18.169Z,78.09
2018-12-23T03:08:22.202Z,78.31
2018-12-23T03:09:26.211Z,78.48
2018-12-23T03:10:30.333Z,78.43
2018-12-23T03:11:34.443Z,78.37
2018-12-23T03:12:38.450Z,78.07
2018-12-23T03:13:42.433Z,78.52
2018-12-23T03:14:46.560Z,78.45
2018-12-23T03:15:50.556Z,78.48
2018-12-23T03:16:54.561Z,78.50
2018-12-23T03:17:58.699Z,77.97
2018-12-23T03:19:02.763Z,77.91
2018-12-23T03:20:07.006Z,77.78
2018-12-23T03:21:11.089Z,78.35
2018-12-23T03:22:15.175Z,77.64
2018-12-23T03:23:19.196Z,78.20
2018-12-23T03:24:23.194Z,78.09
2018-12-23T03:25:27.441Z,77.53
2018-12-23T03:26:31.551Z,78.25
2018-12-23T03:27:35.587Z,77.50
2018-12-23T03:28:39.593Z,77.49
2018-12-23T03:29:43.740Z,78.06
2018-12-23T03:30:47.762Z,77.31
2018-12-23T03:31:51.862Z,77.52
2018-12-23T03:32:56.004Z,78.28
2018-12-23T03:34:00.211Z,77.51
2018-12-23T03:35:04.622Z,78.00
2018-12-23T03:36:14.967Z,78.03
2018-12-23T03:37:14.610Z,77.91
2018-12-23T03:38:18.673Z,78.12
2018-12-23T03:39:23.074Z,78.08
2018-12-23T03:40:27.175Z,77.53
2018-12-23T03:41:31.203Z,77.37
2018-12-23T03:42:35.226Z,77.92
2018-12-23T03:43:39.347Z,77.80
2018-12-23T03:44:43.367Z,77.75
2018-12-23T03:45:47.446Z,77.29
2018-12-23T03:46:51.617Z,77.88
2018-12-23T03:47:55.688Z,77.29
2018-12-23T03:48:59.703Z,77.47
2018-12-23T03:50:04.125Z,77.41
2018-12-23T03:51:08.205Z,78.02
2018-12-23T03:52:12.214Z,77.92
2018-12-23T03:53:16.227Z,77.46
2018-12-23T03:54:20.364Z,77.91
2018-12-23T03:55:24.388Z,77.55
2018-12-23T03:56:28.423Z,77.97
2018-12-23T03:57:32.417Z,78.17
2018-12-23T03:58:36.495Z,77.13
2018-12-23T03:59:40.654Z,77.86
2018-12-23T04:00:44.698Z,77.96
2018-12-23T04:01:48.706Z,77.76
2018-12-23T04:02:52.821Z,77.51
2018-12-23T04:03:56.903Z,77.27
2018-12-23T04:05:01.034Z,77.95
2018-12-23T04:06:05.046Z,77.67
2018-12-23T04:07:09.141Z,77.51
2018-12-23T04:08:13.356Z,77.47
2018-12-23T04:09:17.416Z,77.93
2018-12-23T04:10:21.502Z,77.58
2018-12-23T04:11:25.628Z,77.54
2018-12-23T04:12:29.669Z,77.62
2018-12-23T04:13:33.761Z,78.25
2018-12-23T04:14:37.787Z,78.46
2018-12-23T04:15:41.831Z,78.47
2018-12-23T04:16:45.841Z,77.95
2018-12-23T04:17:49.947Z,77.97
2018-12-23T04:18:53.941Z,78.24
2018-12-23T04:19:57.999Z,77.99
2018-12-23T04:21:02.409Z,78.15
2018-12-23T04:22:06.496Z,78.07
2018-12-23T04:23:10.579Z,78.31
2018-12-23T04:24:14.587Z,78.69
2018-12-23T04:25:18.630Z,77.71
2018-12-23T04:26:22.801Z,78.18
2018-12-23T04:27:26.856Z,78.19
2018-12-23T04:28:30.866Z,77.72
2018-12-23T04:29:34.901Z,78.15
2018-12-23T04:30:39.514Z,77.61
2018-12-23T04:31:43.615Z,78.12
2018-12-23T04:32:47.750Z,78.13
2018-12-23T04:33:51.816Z,78.02
2018-12-23T04:34:56.004Z,78.22
2018-12-23T04:36:00.034Z,77.49
2018-12-23T04:37:04.129Z,77.62
2018-12-23T04:38:08.348Z,77.77
2018-12-23T04:39:12.302Z,78.34
2018-12-23T04:40:16.365Z,77.78
2018-12-23T04:41:20.389Z,78.24
2018-12-23T04:42:24.449Z,77.78
2018-12-23T04:43:28.442Z,78.23
2018-12-23T04:44:32.546Z,77.76
2018-12-23T04:45:36.556Z,78.21
2018-12-23T04:46:40.558Z,77.92
2018-12-23T04:47:44.582Z,77.91
2018-12-23T04:48:48.761Z,77.65
2018-12-23T04:49:52.951Z,78.18
2018-12-23T04:50:56.932Z,77.94
2018-12-23T04:52:00.973Z,78.09
2018-12-23T04:53:05.110Z,78.10
2018-12-23T04:54:09.154Z,78.11
2018-12-23T04:55:13.182Z,78.54
2018-12-23T04:56:17.237Z,77.54
2018-12-23T04:57:21.245Z,77.89
2018-12-23T04:58:25.341Z,78.41
2018-12-23T04:59:29.378Z,78.20
2018-12-23T05:00:33.388Z,78.08
2018-12-23T05:01:37.413Z,78.00
2018-12-23T05:02:41.469Z,78.04
2018-12-23T05:03:45.515Z,78.06
2018-12-23T05:04:49.706Z,78.10
2018-12-23T05:05:53.777Z,77.76
2018-12-23T05:06:57.837Z,78.04
2018-12-23T05:08:02.044Z,78.40
2018-12-23T05:09:06.796Z,78.52
2018-12-23T05:10:10.855Z,78.55
2018-12-23T05:11:14.917Z,78.64
2018-12-23T05:12:19.033Z,78.61
2018-12-23T05:13:23.053Z,78.59
2018-12-23T05:14:27.166Z,78.06
2018-12-23T05:15:31.333Z,78.55
2018-12-23T05:16:35.474Z,77.92
2018-12-23T05:17:39.603Z,78.00
2018-12-23T05:18:43.622Z,77.75
2018-12-23T05:19:47.698Z,77.86
2018-12-23T05:20:51.726Z,77.84
2018-12-23T05:21:55.772Z,78.33
2018-12-23T05:22:59.829Z,78.29
2018-12-23T05:24:03.958Z,78.32
2018-12-23T05:25:08.094Z,77.76
2018-12-23T05:26:12.182Z,77.85
2018-12-23T05:27:16.537Z,78.13
2018-12-23T05:28:20.949Z,78.37
2018-12-23T05:29:25.003Z,77.71
2018-12-23T05:30:29.009Z,78.29
2018-12-23T05:31:33.016Z,77.70
2018-12-23T05:32:37.248Z,77.86
2018-12-23T05:33:41.253Z,78.54
2018-12-23T05:34:45.316Z,78.39
2018-12-23T05:35:49.305Z,77.85
2018-12-23T05:36:53.357Z,78.16
2018-12-23T05:37:57.412Z,78.28
2018-12-23T05:39:01.480Z,77.75
2018-12-23T05:40:05.713Z,77.68
2018-12-23T05:41:09.793Z,77.95
2018-12-23T05:42:13.984Z,77.68
2018-12-23T05:43:18.089Z,77.71
2018-12-23T05:44:22.094Z,78.11
2018-12-23T05:45:26.208Z,78.25
2018-12-23T05:46:30.314Z,77.65
2018-12-23T05:47:34.329Z,77.59
2018-12-23T05:48:38.346Z,78.38
2018-12-23T05:49:42.477Z,78.37
2018-12-23T05:50:46.501Z,78.20
2018-12-23T05:51:50.544Z,78.29
2018-12-23T05:52:54.602Z,78.00
2018-12-23T05:53:58.644Z,77.69
2018-12-23T05:55:02.666Z,78.16
2018-12-23T05:56:06.750Z,77.70
2018-12-23T05:57:10.771Z,77.56
2018-12-23T05:58:14.895Z,77.88
2018-12-23T05:59:18.942Z,77.55
2018-12-23T06:00:23.103Z,77.92
2018-12-23T06:01:27.121Z,77.74
2018-12-23T06:02:31.151Z,77.74
2018-12-23T06:03:35.886Z,77.68
2018-12-23T06:04:39.918Z,78.50
2018-12-23T06:05:43.938Z,78.25
2018-12-23T06:06:48.007Z,78.27
2018-12-23T06:07:52.067Z,77.87
2018-12-23T06:08:56.058Z,77.58
2018-12-23T06:10:00.262Z,77.73
2018-12-23T06:11:04.437Z,78.20
2018-12-23T06:12:08.453Z,77.84
2018-12-23T06:13:12.495Z,77.56
2018-12-23T06:14:16.569Z,78.05
2018-12-23T06:15:20.574Z,78.11
2018-12-23T06:16:24.595Z,77.41
2018-12-23T06:17:28.620Z,77.45
2018-12-23T06:18:32.646Z,78.06
2018-12-23T06:19:36.684Z,77.55
2018-12-23T06:20:40.772Z,77.57
2018-12-23T06:21:44.886Z,77.57
2018-12-23T06:22:49.004Z,77.43
2018-12-23T06:23:53.107Z,78.14
2018-12-23T06:24:57.293Z,78.09
2018-12-23T06:26:01.444Z,78.09
2018-12-23T06:27:05.523Z,78.23
2018-12-23T06:28:09.832Z,78.21
2018-12-23T06:29:13.889Z,77.76
2018-12-23T06:30:17.948Z,78.27
2018-12-23T06:31:21.947Z,77.77
2018-12-23T06:32:25.985Z,78.34
2018-12-23T06:33:30.119Z,78.24
2018-12-23T06:34:34.194Z,78.19
2018-12-23T06:35:38.246Z,78.21
2018-12-23T06:36:42.305Z,78.13
2018-12-23T06:37:46.362Z,77.58
2018-12-23T06:38:50.410Z,77.63
2018-12-23T06:39:54.478Z,77.55
2018-12-23T06:40:58.569Z,77.88
2018-12-23T06:42:02.662Z,77.85
2018-12-23T06:43:06.689Z,77.30
2018-12-23T06:44:10.727Z,77.87
2018-12-23T06:45:14.835Z,77.22
2018-12-23T06:46:18.907Z,76.98
2018-12-23T06:47:22.897Z,77.20
2018-12-23T06:48:27.073Z,77.73
2018-12-23T06:49:31.088Z,77.80
2018-12-23T06:50:35.271Z,77.13
2018-12-23T06:51:39.278Z,77.21
2018-12-23T06:52:43.357Z,77.71
2018-12-23T06:53:47.354Z,77.60
2018-12-23T06:54:51.641Z,77.58
2018-12-23T06:55:55.685Z,77.61
2018-12-23T06:56:59.690Z,77.58
2018-12-23T06:58:03.697Z,77.04
2018-12-23T06:59:07.749Z,77.63
2018-12-23T07:00:12.482Z,77.60
2018-12-23T07:01:16.958Z,77.39
2018-12-23T07:02:21.086Z,77.56
2018-12-23T07:03:25.157Z,77.09
2018-12-23T07:04:29.167Z,76.94
2018-12-23T07:05:33.185Z,77.26
2018-12-23T07:06:37.515Z,77.64
2018-12-23T07:07:41.512Z,77.81
2018-12-23T07:08:45.559Z,77.58
2018-12-23T07:09:49.565Z,77.15
2018-12-23T07:10:53.562Z,77.09
2018-12-23T07:11:57.689Z,77.63
2018-12-23T07:13:01.708Z,77.67
2018-12-23T07:14:05.760Z,77.21
2018-12-23T07:15:09.819Z,77.65
2018-12-23T07:16:13.981Z,77.06
2018-12-23T07:17:18.120Z,77.30
2018-12-23T07:18:22.131Z,77.41
2018-12-23T07:19:26.178Z,77.61
2018-12-23T07:20:30.364Z,77.02
2018-12-23T07:21:34.400Z,77.02
2018-12-23T07:22:38.560Z,77.54
2018-12-23T07:23:42.638Z,77.88
2018-12-23T07:24:46.825Z,76.98
2018-12-23T07:25:50.862Z,76.90
2018-12-23T07:26:54.923Z,77.45
2018-12-23T07:27:58.985Z,77.15
2018-12-23T07:29:03.221Z,77.47
2018-12-23T07:30:07.783Z,77.45
2018-12-23T07:31:11.886Z,77.00
2018-12-23T07:32:15.917Z,77.59
2018-12-23T07:33:19.979Z,77.02
2018-12-23T07:34:24.038Z,77.00
2018-12-23T07:35:28.052Z,76.91
2018-12-23T07:36:32.244Z,76.99
2018-12-23T07:37:36.209Z,77.51
2018-12-23T07:38:40.238Z,76.97
2018-12-23T07:39:44.257Z,77.46
2018-12-23T07:40:48.254Z,77.55
2018-12-23T07:41:52.244Z,76.88
2018-12-23T07:42:56.328Z,77.15
2018-12-23T07:44:00.439Z,76.64
2018-12-23T07:45:05.218Z,76.83
2018-12-23T07:46:09.229Z,76.79
2018-12-23T07:47:13.267Z,76.81
2018-12-23T07:48:17.335Z,77.21
2018-12-23T07:49:21.446Z,76.73
2018-12-23T07:50:25.469Z,76.75
2018-12-23T07:51:30.485Z,76.70
2018-12-23T07:52:34.541Z,76.63
2018-12-23T07:53:38.583Z,76.93
2018-12-23T07:54:42.819Z,77.52
2018-12-23T07:55:47.000Z,76.53
2018-12-23T07:56:51.091Z,77.12
2018-12-23T07:57:55.250Z,77.03
2018-12-23T07:58:59.285Z,76.68
2018-12-23T08:00:03.603Z,76.56
2018-12-23T08:01:07.629Z,77.06
2018-12-23T08:02:11.752Z,76.79
2018-12-23T08:03:15.906Z,76.43
2018-12-23T08:04:20.017Z,76.76
2018-12-23T08:05:24.072Z,76.56
2018-12-23T08:06:28.098Z,76.58
2018-12-23T08:07:36.176Z,76.56
2018-12-23T08:08:38.041Z,77.13
2018-12-23T08:09:42.172Z,76.65
2018-12-23T08:10:46.194Z,77.21
2018-12-23T08:11:50.212Z,77.08
2018-12-23T08:12:54.280Z,77.36
2018-12-23T08:13:58.310Z,77.31
2018-12-23T08:15:02.546Z,76.76
2018-12-23T08:16:10.689Z,77.29
2018-12-23T08:17:14.822Z,77.06
2018-12-23T08:18:18.842Z,76.78
2018-12-23T08:19:22.859Z,76.70
2018-12-23T08:20:26.991Z,77.18
2018-12-23T08:21:31.015Z,76.62
2018-12-23T08:22:35.151Z,76.57
2018-12-23T08:23:39.208Z,76.61
2018-12-23T08:24:43.379Z,76.68
2018-12-23T08:25:47.341Z,76.37
2018-12-23T08:26:51.472Z,76.74
2018-12-23T08:27:55.544Z,76.90
2018-12-23T08:28:59.531Z,76.94
2018-12-23T08:30:04.170Z,76.86
2018-12-23T08:31:08.347Z,76.40
2018-12-23T08:32:12.485Z,76.87
2018-12-23T08:33:16.677Z,76.92
2018-12-23T08:34:20.671Z,77.15
2018-12-23T08:35:24.727Z,76.92
2018-12-23T08:36:28.756Z,76.32
2018-12-23T08:37:32.878Z,76.24
2018-12-23T08:38:37.065Z,76.31
2018-12-23T08:39:41.097Z,76.28
2018-12-23T08:40:45.223Z,76.33
2018-12-23T08:41:49.374Z,76.22
2018-12-23T08:42:53.406Z,76.79
2018-12-23T08:43:57.598Z,76.78
2018-12-23T08:45:01.563Z,76.81
2018-12-23T08:46:05.577Z,76.62
2018-12-23T08:47:09.642Z,76.40
2018-12-23T08:48:13.737Z,76.10
2018-12-23T08:49:17.745Z,76.58
2018-12-23T08:50:21.843Z,76.21
2018-12-23T08:51:25.911Z,75.89
2018-12-23T08:52:29.925Z,76.03
2018-12-23T08:53:34.028Z,75.72
2018-12-23T08:54:38.139Z,76.08
2018-12-23T08:55:42.129Z,75.63
2018-12-23T08:56:46.226Z,75.66
2018-12-23T08:57:50.238Z,75.64
2018-12-23T08:58:54.309Z,75.52
2018-12-23T08:59:58.412Z,76.00
2018-12-23T09:01:02.530Z,75.79
2018-12-23T09:02:06.810Z,76.13
2018-12-23T09:03:18.649Z,75.32
2018-12-23T09:04:16.878Z,75.45
2018-12-23T09:05:20.981Z,75.93
2018-12-23T09:06:24.987Z,75.97
2018-12-23T09:07:29.032Z,75.66
2018-12-23T09:08:33.053Z,75.89
2018-12-23T09:09:37.112Z,76.17
2018-12-23T09:10:41.293Z,76.11
2018-12-23T09:11:45.357Z,75.63
2018-12-23T09:12:49.451Z,75.21
2018-12-23T09:13:53.484Z,75.39
2018-12-23T09:14:57.573Z,75.62
2018-12-23T09:16:01.890Z,75.34
2018-12-23T09:17:05.891Z,75.41
2018-12-23T09:18:10.030Z,76.03
2018-12-23T09:19:14.077Z,75.73
2018-12-23T09:20:18.338Z,75.45
2018-12-23T09:21:22.365Z,75.72
2018-12-23T09:22:26.541Z,75.36
2018-12-23T09:23:30.556Z,75.56
2018-12-23T09:24:34.622Z,75.60
2018-12-23T09:25:38.750Z,75.16
2018-12-23T09:26:42.742Z,75.21
2018-12-23T09:27:46.775Z,75.15
2018-12-23T09:28:50.832Z,74.87
2018-12-23T09:29:54.989Z,75.22
2018-12-23T09:30:59.146Z,74.95
2018-12-23T09:32:03.291Z,75.04
2018-12-23T09:33:07.389Z,74.72
2018-12-23T09:34:11.437Z,74.99
2018-12-23T09:35:15.606Z,74.84
2018-12-23T09:36:19.705Z,74.86
2018-12-23T09:37:23.816Z,74.91
2018-12-23T09:38:27.777Z,75.17
2018-12-23T09:39:31.915Z,74.91
2018-12-23T09:40:36.158Z,74.84
2018-12-23T09:41:40.208Z,74.59
2018-12-23T09:42:44.223Z,74.70
2018-12-23T09:43:48.243Z,74.65
2018-12-23T09:44:52.275Z,74.82
2018-12-23T09:45:56.318Z,75.09
2018-12-23T09:47:00.315Z,74.80
2018-12-23T09:48:04.354Z,74.47
2018-12-23T09:49:08.395Z,74.81
2018-12-23T09:50:12.598Z,74.09
2018-12-23T09:51:16.634Z,74.15
2018-12-23T09:52:20.645Z,74.74
2018-12-23T09:53:24.750Z,74.33
2018-12-23T09:54:28.748Z,74.40
2018-12-23T09:55:32.884Z,74.35
2018-12-23T09:56:37.258Z,74.22
2018-12-23T09:57:41.262Z,74.73
2018-12-23T09:58:45.343Z,74.32
2018-12-23T09:59:49.351Z,74.07
2018-12-23T10:00:53.398Z,73.96
2018-12-23T10:01:57.478Z,74.47
2018-12-23T10:03:01.692Z,74.16
2018-12-23T10:04:05.778Z,74.20
2018-12-23T10:05:09.834Z,74.20
2018-12-23T10:06:13.824Z,74.03
2018-12-23T10:07:17.838Z,74.16
2018-12-23T10:08:21.965Z,74.10
2018-12-23T10:09:25.965Z,74.07
2018-12-23T10:10:29.954Z,74.17
2018-12-23T10:11:34.084Z,74.05
2018-12-23T10:12:38.081Z,73.79
2018-12-23T10:13:45.470Z,74.17
2018-12-23T10:14:49.501Z,74.06
2018-12-23T10:15:53.570Z,74.05
2018-12-23T10:16:57.661Z,73.94
2018-12-23T10:18:01.774Z,73.60
2018-12-23T10:19:05.962Z,73.93
2018-12-23T10:20:10.011Z,73.77
2018-12-23T10:21:14.032Z,73.57
2018-12-23T10:22:18.052Z,74.02
2018-12-23T10:23:22.071Z,73.67
2018-12-23T10:24:26.134Z,74.00
2018-12-23T10:25:30.220Z,73.46
2018-12-23T10:26:34.227Z,73.55
2018-12-23T10:27:38.265Z,73.43
2018-12-23T10:28:42.315Z,73.62
2018-12-23T10:29:46.435Z,73.77
2018-12-23T10:30:50.655Z,73.84
2018-12-23T10:31:55.015Z,73.79
2018-12-23T10:32:59.169Z,73.80
2018-12-23T10:34:03.186Z,73.10
2018-12-23T10:35:07.449Z,73.80
2018-12-23T10:36:11.576Z,73.82
2018-12-23T10:37:16.737Z,73.73
2018-12-23T10:38:21.186Z,73.60
2018-12-23T10:39:25.232Z,74.05
2018-12-23T10:40:29.270Z,73.60
2018-12-23T10:41:33.282Z,73.21
2018-12-23T10:42:37.330Z,73.55
2018-12-23T10:43:41.324Z,73.78
2018-12-23T10:44:45.370Z,73.46
2018-12-23T10:45:49.474Z,73.18
2018-12-23T10:46:53.478Z,74.05
2018-12-23T10:47:57.571Z,73.81
2018-12-23T10:49:01.691Z,73.36
2018-12-23T10:50:05.934Z,73.67
2018-12-23T10:51:09.993Z,73.94
2018-12-23T10:52:14.030Z,73.97
2018-12-23T10:53:18.038Z,73.75
2018-12-23T10:54:22.191Z,73.75
2018-12-23T10:55:26.265Z,73.91
2018-12-23T10:56:30.540Z,73.67
2018-12-23T10:57:34.577Z,73.86
2018-12-23T10:58:38.679Z,73.40
2018-12-23T10:59:42.749Z,73.90
2018-12-23T11:00:46.752Z,74.03
2018-12-23T11:01:50.974Z,74.17
2018-12-23T11:02:55.290Z,74.15
2018-12-23T11:03:59.505Z,74.10
2018-12-23T11:05:03.622Z,74.27
2018-12-23T11:06:07.613Z,73.95
2018-12-23T11:07:11.665Z,74.80
2018-12-23T11:08:15.750Z,74.71
2018-12-23T11:09:19.803Z,74.87
2018-12-23T11:10:23.802Z,74.33
2018-12-23T11:11:27.900Z,74.98
2018-12-23T11:12:31.941Z,75.00
2018-12-23T11:13:36.101Z,74.47
2018-12-23T11:14:40.138Z,74.13
2018-12-23T11:15:44.126Z,74.55
2018-12-23T11:16:48.212Z,74.49
2018-12-23T11:17:52.300Z,74.49
2018-12-23T11:18:56.362Z,74.31
2018-12-23T11:20:00.682Z,74.66
2018-12-23T11:21:04.686Z,74.69
2018-12-23T11:22:09.627Z,74.82
2018-12-23T11:23:13.759Z,74.75
2018-12-23T11:24:17.790Z,75.23
2018-12-23T11:25:21.786Z,75.13
2018-12-23T11:26:25.833Z,75.51
2018-12-23T11:27:29.890Z,75.32
2018-12-23T11:28:34.160Z,75.68
2018-12-23T11:29:38.296Z,75.24
2018-12-23T11:30:42.265Z,75.47
2018-12-23T11:31:46.335Z,75.91
2018-12-23T11:32:50.709Z,75.49
2018-12-23T11:33:57.202Z,76.02
2018-12-23T11:35:01.284Z,75.90
2018-12-23T11:36:05.398Z,75.66
2018-12-23T11:37:09.567Z,76.35
2018-12-23T11:38:17.312Z,76.38
2018-12-23T11:39:21.856Z,76.26
2018-12-23T11:40:26.038Z,76.20
2018-12-23T11:41:30.345Z,76.23
2018-12-23T11:42:34.349Z,76.48
2018-12-23T11:43:38.346Z,76.77
2018-12-23T11:44:42.492Z,77.04
2018-12-23T11:45:46.577Z,76.81
2018-12-23T11:46:50.860Z,77.17
2018-12-23T11:47:54.893Z,77.02
2018-12-23T11:48:58.898Z,76.89
2018-12-23T11:50:02.997Z,76.54
2018-12-23T11:51:07.192Z,76.85
2018-12-23T11:52:11.351Z,77.17
2018-12-23T11:53:15.490Z,77.06
2018-12-23T11:54:19.489Z,77.27
2018-12-23T11:55:23.697Z,76.97
2018-12-23T11:56:27.801Z,76.71
2018-12-23T11:57:31.790Z,76.62
2018-12-23T11:58:35.957Z,76.82
2018-12-23T11:59:40.058Z,77.22
2018-12-23T12:00:44.101Z,76.83
2018-12-23T12:01:48.135Z,77.70
2018-12-23T12:02:52.123Z,77.50
2018-12-23T12:03:56.182Z,76.71
2018-12-23T12:05:00.240Z,77.00
2018-12-23T12:06:04.461Z,76.66
2018-12-23T12:07:08.571Z,77.26
2018-12-23T12:08:12.590Z,77.18
2018-12-23T12:09:16.619Z,77.25
2018-12-23T12:10:20.681Z,76.73
2018-12-23T12:11:24.705Z,77.28
2018-12-23T12:12:28.715Z,76.97
2018-12-23T12:13:32.710Z,76.84
2018-12-23T12:14:36.790Z,76.68
2018-12-23T12:15:40.890Z,76.90
2018-12-23T12:16:44.918Z,77.16
2018-12-23T12:17:49.992Z,77.05
2018-12-23T12:18:53.997Z,76.79
2018-12-23T12:19:58.067Z,77.14
2018-12-23T12:21:02.041Z,77.24
2018-12-23T12:22:06.136Z,76.83
2018-12-23T12:23:10.149Z,77.31
2018-12-23T12:24:14.241Z,77.25
2018-12-23T12:25:18.269Z,76.84
2018-12-23T12:26:22.543Z,77.19
2018-12-23T12:27:26.566Z,77.38
2018-12-23T12:28:30.721Z,77.53
2018-12-23T12:29:34.735Z,77.18
2018-12-23T12:30:38.804Z,77.01
2018-12-23T12:31:42.871Z,77.58
2018-12-23T12:32:46.976Z,77.67
2018-12-23T12:33:51.402Z,77.23
2018-12-23T12:34:55.455Z,77.13
2018-12-23T12:35:59.718Z,77.75
2018-12-23T12:37:03.703Z,77.74
2018-12-23T12:38:07.802Z,77.35
2018-12-23T12:39:11.795Z,77.44
2018-12-23T12:40:15.810Z,77.17
2018-12-23T12:41:20.861Z,77.06
2018-12-23T12:42:24.974Z,77.22
2018-12-23T12:43:29.035Z,77.23
2018-12-23T12:44:33.095Z,77.10
2018-12-23T12:45:37.249Z,77.39
2018-12-23T12:46:41.339Z,77.72
2018-12-23T12:47:45.347Z,77.61
2018-12-23T12:48:49.444Z,77.57
2018-12-23T12:49:53.487Z,77.84
2018-12-23T12:50:57.527Z,77.44
2018-12-23T12:52:01.565Z,77.47
2018-12-23T12:53:05.646Z,77.17
2018-12-23T12:54:09.654Z,78.11
2018-12-23T12:55:13.655Z,77.41
2018-12-23T12:56:17.689Z,77.68
2018-12-23T12:57:21.755Z,77.50
2018-12-23T12:58:25.762Z,77.83
2018-12-23T12:59:29.772Z,77.75
2018-12-23T13:00:33.862Z,78.08
2018-12-23T13:01:37.944Z,77.84
2018-12-23T13:02:41.946Z,77.78
2018-12-23T13:03:45.981Z,78.18
2018-12-23T13:04:50.059Z,77.98
2018-12-23T13:05:54.070Z,78.15
2018-12-23T13:06:58.081Z,78.01
2018-12-23T13:08:02.074Z,77.76
2018-12-23T13:09:06.825Z,77.57
2018-12-23T13:10:11.025Z,78.12
2018-12-23T13:11:15.040Z,78.06
2018-12-23T13:12:19.058Z,77.47
2018-12-23T13:13:23.231Z,77.65
2018-12-23T13:14:27.512Z,78.41
2018-12-23T13:15:31.620Z,78.21
2018-12-23T13:16:35.609Z,77.64
2018-12-23T13:17:39.688Z,77.64
2018-12-23T13:18:43.696Z,77.65
2018-12-23T13:19:47.729Z,77.79
2018-12-23T13:20:51.724Z,77.59
2018-12-23T13:21:55.799Z,77.74
2018-12-23T13:22:59.809Z,77.83
2018-12-23T13:24:04.040Z,77.85
2018-12-23T13:25:08.065Z,78.26
2018-12-23T13:26:12.172Z,78.18
2018-12-23T13:27:16.179Z,77.70
2018-12-23T13:28:20.277Z,77.97
2018-12-23T13:29:24.269Z,78.08
2018-12-23T13:30:28.280Z,77.64
2018-12-23T13:31:32.331Z,78.06
2018-12-23T13:32:36.410Z,77.79
2018-12-23T13:33:40.483Z,78.35
2018-12-23T13:34:44.646Z,77.79
2018-12-23T13:35:48.697Z,77.83
2018-12-23T13:36:52.745Z,77.79
2018-12-23T13:37:56.911Z,77.51
2018-12-23T13:39:08.787Z,77.57
2018-12-23T13:40:15.982Z,77.95
2018-12-23T13:41:32.319Z,77.90
2018-12-23T13:43:02.133Z,77.50
2018-12-23T13:44:31.183Z,77.84
2018-12-23T13:46:17.994Z,78.11
2018-12-23T13:47:33.164Z,77.77